Time;durP1;ratioP1;P1;durP2;ratioP2;P2;SDS_P1;SDS_P2;PMS_P1;PMS_P2;Temp;Humidity;BMP_temperature;BMP_pressure;BME280_temperature;BME280_humidity;BME280_pressure;Samples;Min_cycle;Max_cycle;Signal;HPM_P1;HPM_P2
2024/04/18 00:02:16;;;;;;;;;;;;;;;;;;5456557;26;20025;-79
2024/04/18 00:04:45;;;;;;;;;;;;;;;;;;5456039;26;20002;-80
2024/04/18 00:07:11;;;;;;;;;;;;;;;;;;5452257;26;19999;-78
2024/04/18 00:09:40;;;;;;;;;;;;;;;;;;5453616;26;19994;-79
2024/04/18 00:12:06;;;;;;;;;;;;;;;;;;5455537;26;20014;-78
2024/04/18 00:14:34;;;;;;;;;;;;;;;;;;5455405;26;20088;-78
2024/04/18 00:17:00;;;;;;;;;;;;;;;;;;5437288;26;20002;-78
2024/04/18 00:19:29;;;;;;;;;;;;;;;;;;5456354;26;20010;-80
2024/04/18 00:21:55;;;;;;;;;;;;;;;;;;5460339;26;20022;-79
2024/04/18 00:24:23;;;;;;;;;;;;;;;;;;5464902;26;20046;-79
2024/04/18 00:26:49;;;;;;;;;;;;;;;;;;5454133;26;20455;-78
2024/04/18 00:29:18;;;;;;;;;;;;;;;;;;5454718;26;20018;-80
2024/04/18 00:31:44;;;;;;;;;;;;;;;;;;5454390;26;20354;-78
2024/04/18 00:34:12;;;;;;;;;;;;;;;;;;5455564;26;20007;-79
2024/04/18 00:36:38;;;;;;;;;;;;;;;;;;5424728;26;20442;-79
2024/04/18 00:39:07;;;;;;;;;;;;;;;;;;5438246;26;20021;-79
2024/04/18 00:41:33;;;;;;;;;;;;;;;;;;5455022;26;20024;-79
2024/04/18 00:44:02;;;;;;;;;;;;;;;;;;5455626;26;19994;-79
2024/04/18 00:46:28;;;;;;;;;;;;;;;;;;5440328;26;19999;-79
2024/04/18 00:48:56;;;;;;;;;;;;;;;;;;5453984;26;20003;-79
2024/04/18 00:51:22;;;;;;;;;;;;;;;;;;5454422;26;20006;-78
2024/04/18 00:53:51;;;;;;;;;;;;;;;;;;5454401;26;20021;-78
2024/04/18 00:56:17;;;;;;;;;;;;;;;;;;5439221;26;20092;-78
2024/04/18 00:58:45;;;;;;;;;;;;;;;;;;5453188;26;20010;-78
2024/04/18 01:01:11;;;;;;;;;;;;;;;;;;5454457;26;19998;-80
2024/04/18 01:03:40;;;;;;;;;;;;;;;;;;5456470;26;20075;-78
2024/04/18 01:06:06;;;;;;;;;;;;;;;;;;5444208;26;20455;-79
2024/04/18 01:08:34;;;;;;;;;;;;;;;;;;5454919;26;20002;-79
2024/04/18 01:11:00;;;;;;;;;;;;;;;;;;5457288;26;20002;-78
2024/04/18 01:13:29;;;;;;;;;;;;;;;;;;5452830;26;20087;-78
2024/04/18 01:15:55;;;;;;;;;;;;;;;;;;5420620;26;20079;-79
2024/04/18 01:18:24;;;;;;;;;;;;;;;;;;5452709;26;20003;-79
2024/04/18 01:20:50;;;;;;;;;;;;;;;;;;5456875;26;20462;-78
2024/04/18 01:23:18;;;;;;;;;;;;;;;;;;5460341;26;19998;-78
2024/04/18 01:25:44;;;;;;;;;;;;;;;;;;5463664;26;19995;-80
2024/04/18 01:28:13;;;;;;;;;;;;;;;;;;5463716;26;20021;-81
2024/04/18 01:30:39;;;;;;;;;;;;;;;;;;5471700;26;20021;-79
2024/04/18 01:33:07;;;;;;;;;;;;;;;;;;5471202;26;20002;-80
2024/04/18 01:35:33;;;;;;;;;;;;;;;;;;5463207;26;20079;-78
2024/04/18 01:38:02;;;;;;;;;;;;;;;;;;5435947;26;20443;-80
2024/04/18 01:40:28;;;;;;;;;;;;;;;;;;5460565;26;20002;-79
2024/04/18 01:42:56;;;;;;;;;;;;;;;;;;5458850;26;20002;-78
2024/04/18 01:45:22;;;;;;;;;;;;;;;;;;5449320;26;20003;-79
2024/04/18 01:47:51;;;;;;;;;;;;;;;;;;5457240;26;20324;-79
2024/04/18 01:50:17;;;;;;;;;;;;;;;;;;5456527;26;20002;-79
2024/04/18 01:52:45;;;;;;;;;;;;;;;;;;5445576;26;20002;-79
2024/04/18 01:55:11;;;;;;;;;;;;;;;;;;5451740;26;20006;-80
2024/04/18 01:57:40;;;;;;;;;;;;;;;;;;5458167;26;20447;-80
2024/04/18 02:00:06;;;;;;;;;;;;;;;;;;5457366;26;20002;-80
2024/04/18 02:02:35;;;;;;;;;;;;;;;;;;5451379;26;20021;-79
2024/04/18 02:05:01;;;;;;;;;;;;;;;;;;5453618;26;20010;-79
2024/04/18 02:07:29;;;;;;;;;;;;;;;;;;5452257;26;20455;-79
2024/04/18 02:09:55;;;;;;;;;;;;;;;;;;5447887;26;19995;-78
2024/04/18 02:12:24;;;;;;;;;;;;;;;;;;5450513;26;19999;-78
2024/04/18 02:14:50;;;;;;;;;;;;;;;;;;5454897;26;20025;-80
2024/04/18 02:17:18;;;;;;;;;;;;;;;;;;5438631;26;20030;-79
2024/04/18 02:19:44;;;;;;;;;;;;;;;;;;5418513;26;19999;-79
2024/04/18 02:22:13;;;;;;;;;;;;;;;;;;5409151;26;20022;-78
2024/04/18 02:24:39;;;;;;;;;;;;;;;;;;5427031;26;19995;-78
2024/04/18 02:27:08;;;;;;;;;;;;;;;;;;5427857;26;20136;-79
2024/04/18 02:29:33;;;;;;;;;;;;;;;;;;5413040;26;19994;-78
2024/04/18 02:32:02;;;;;;;;;;;;;;;;;;5456220;26;20078;-80
2024/04/18 02:34:28;;;;;;;;;;;;;;;;;;5456616;26;20029;-81
2024/04/18 02:36:57;;;;;;;;;;;;;;;;;;5466377;26;19994;-79
2024/04/18 02:39:23;;;;;;;;;;;;;;;;;;5461029;26;20003;-79
2024/04/18 02:41:51;;;;;;;;;;;;;;;;;;5454984;26;20083;-78
2024/04/18 02:44:17;;;;;;;;;;;;;;;;;;5450933;26;20021;-78
2024/04/18 02:46:46;;;;;;;;;;;;;;;;;;5455023;26;19995;-79
2024/04/18 02:49:12;;;;;;;;;;;;;;;;;;5453256;26;20143;-79
2024/04/18 02:51:40;;;;;;;;;;;;;;;;;;5453119;26;20035;-78
2024/04/18 02:54:06;;;;;;;;;;;;;;;;;;5450338;26;20012;-78
2024/04/18 02:56:35;;;;;;;;;;;;;;;;;;5453451;26;20079;-79
2024/04/18 02:59:01;;;;;;;;;;;;;;;;;;5454687;26;19994;-78
2024/04/18 03:01:30;;;;;;;;;;;;;;;;;;5435667;26;19999;-78
2024/04/18 03:03:56;;;;;;;;;;;;;;;;;;5444473;26;19995;-79
2024/04/18 03:06:25;;;;;;;;;;;;;;;;;;5453693;26;20025;-79
2024/04/18 03:08:51;;;;;;;;;;;;;;;;;;5454252;26;20022;-78
2024/04/18 03:11:19;;;;;;;;;;;;;;;;;;5452746;26;19994;-77
2024/04/18 03:13:45;;;;;;;;;;;;;;;;;;5433268;26;20504;-78
2024/04/18 03:16:14;;;;;;;;;;;;;;;;;;5448309;26;19999;-82
2024/04/18 03:18:40;;;;;;;;;;;;;;;;;;5453057;26;20009;-80
2024/04/18 03:21:08;;;;;;;;;;;;;;;;;;5453674;26;20016;-79
2024/04/18 03:23:34;;;;;;;;;;;;;;;;;;5451148;26;20026;-78
2024/04/18 03:26:03;;;;;;;;;;;;;;;;;;5453696;26;19995;-78
2024/04/18 03:28:29;;;;;;;;;;;;;;;;;;5452732;26;20519;-79
2024/04/18 03:30:57;;;;;;;;;;;;;;;;;;5453459;26;20011;-78
2024/04/18 03:33:23;;;;;;;;;;;;;;;;;;5448596;26;20015;-78
2024/04/18 03:35:52;;;;;;;;;;;;;;;;;;5442130;26;20061;-78
2024/04/18 03:38:21;;;;;;;;;;;;;;;;;;5454828;26;19998;-78
2024/04/18 03:40:49;;;;;;;;;;;;;;;;;;5453347;26;20020;-79
2024/04/18 03:43:18;;;;;;;;;;;;;;;;;;5451452;26;20024;-77
2024/04/18 03:45:46;;;;;;;;;;;;;;;;;;5450460;26;20021;-78
2024/04/18 03:48:12;;;;;;;;;;;;;;;;;;5432012;26;20481;-77
2024/04/18 03:50:41;;;;;;;;;;;;;;;;;;5453421;26;20002;-79
2024/04/18 03:53:07;;;;;;;;;;;;;;;;;;5451425;26;20448;-79
2024/04/18 03:55:35;;;;;;;;;;;;;;;;;;5453816;26;20002;-78
2024/04/18 03:58:01;;;;;;;;;;;;;;;;;;5452980;26;19998;-79
2024/04/18 04:00:30;;;;;;;;;;;;;;;;;;5438726;26;20018;-78
2024/04/18 04:02:56;;;;;;;;;;;;;;;;;;5452324;26;19994;-78
2024/04/18 04:05:24;;;;;;;;;;;;;;;;;;5453327;26;20083;-76
2024/04/18 04:07:50;;;;;;;;;;;;;;;;;;5442611;26;20083;-78
2024/04/18 04:10:19;;;;;;;;;;;;;;;;;;5421595;26;20011;-78
2024/04/18 04:12:45;;;;;;;;;;;;;;;;;;5416148;26;20025;-78
2024/04/18 04:15:14;;;;;;;;;;;;;;;;;;5416926;26;20003;-76
2024/04/18 04:17:39;;;;;;;;;;;;;;;;;;5412899;26;20748;-77
2024/04/18 04:20:08;;;;;;;;;;;;;;;;;;5417062;26;19995;-80
2024/04/18 04:22:34;;;;;;;;;;;;;;;;;;5416676;26;20482;-78
2024/04/18 04:25:03;;;;;;;;;;;;;;;;;;5418690;26;20003;-79
2024/04/18 04:27:29;;;;;;;;;;;;;;;;;;5435126;26;20060;-79
2024/04/18 04:29:58;;;;;;;;;;;;;;;;;;5468783;26;20010;-79
2024/04/18 04:32:24;;;;;;;;;;;;;;;;;;5461672;26;20023;-78
2024/04/18 04:34:52;;;;;;;;;;;;;;;;;;5454800;26;20006;-78
2024/04/18 04:37:18;;;;;;;;;;;;;;;;;;5462693;26;20003;-80
2024/04/18 04:39:47;;;;;;;;;;;;;;;;;;5459221;26;20603;-80
2024/04/18 04:42:13;;;;;;;;;;;;;;;;;;5458125;26;20013;-81
2024/04/18 04:44:41;;;;;;;;;;;;;;;;;;5443622;26;19998;-79
2024/04/18 04:47:07;;;;;;;;;;;;;;;;;;5426140;26;20007;-80
2024/04/18 04:49:36;;;;;;;;;;;;;;;;;;5418912;26;19995;-79
2024/04/18 04:52:02;;;;;;;;;;;;;;;;;;5426126;26;20021;-78
2024/04/18 04:54:30;;;;;;;;;;;;;;;;;;5419892;26;19999;-79
2024/04/18 04:56:56;;;;;;;;;;;;;;;;;;5418787;26;20018;-80
2024/04/18 04:59:25;;;;;;;;;;;;;;;;;;5426634;26;20003;-77
2024/04/18 05:01:51;;;;;;;;;;;;;;;;;;5418903;26;20088;-79
2024/04/18 05:04:19;;;;;;;;;;;;;;;;;;5419521;26;20381;-79
2024/04/18 05:06:45;;;;;;;;;;;;;;;;;;5445509;26;20011;-79
2024/04/18 05:09:14;;;;;;;;;;;;;;;;;;5403013;26;20093;-79
2024/04/18 05:11:40;;;;;;;;;;;;;;;;;;5454023;26;20003;-79
2024/04/18 05:14:08;;;;;;;;;;;;;;;;;;5440621;26;20017;-79
2024/04/18 05:16:34;;;;;;;;;;;;;;;;;;5455479;26;20002;-78
2024/04/18 05:19:03;;;;;;;;;;;;;;;;;;5441405;26;20067;-79
2024/04/18 05:21:29;;;;;;;;;;;;;;;;;;5455239;26;20010;-79
2024/04/18 05:23:58;;;;;;;;;;;;;;;;;;5440900;26;19995;-79
2024/04/18 05:26:29;;;;;;;;;;;;;;;;;;5454795;26;20003;-78
2024/04/18 05:31:39;;;;;;;;;;;;;;;;;;5454652;26;20062;-79
2024/04/18 05:34:07;;;;;;;;;;;;;;;;;;5441539;26;20059;-79
2024/04/18 05:36:36;;;;;;;;;;;;;;;;;;5440661;26;19991;-78
2024/04/18 05:39:05;;;;;;;;;;;;;;;;;;5408666;26;20022;-78
2024/04/18 05:41:34;;;;;;;;;;;;;;;;;;5414360;26;20637;-79
2024/04/18 05:44:03;;;;;;;;;;;;;;;;;;5412242;26;20003;-77
2024/04/18 05:46:31;;;;;;;;;;;;;;;;;;5423159;26;20322;-78
2024/04/18 05:49:00;;;;;;;;;;;;;;;;;;5403663;26;20021;-78
2024/04/18 05:51:28;;;;;;;;;;;;;;;;;;5413996;26;20010;-80
2024/04/18 05:53:57;;;;;;;;;;;;;;;;;;5412272;26;20019;-78
2024/04/18 05:56:26;;;;;;;;;;;;;;;;;;5416889;26;19999;-79
2024/04/18 05:58:54;;;;;;;;;;;;;;;;;;5417277;26;20019;-80
2024/04/18 06:01:23;;;;;;;;;;;;;;;;;;5415670;26;20513;-78
2024/04/18 06:03:52;;;;;;;;;;;;;;;;;;5419113;26;20379;-78
2024/04/18 06:06:20;;;;;;;;;;;;;;;;;;5416280;26;20008;-79
2024/04/18 06:08:50;;;;;;;;;;;;;;;;;;5416900;26;20004;-79
2024/04/18 06:11:18;;;;;;;;;;;;;;;;;;5403994;26;20043;-81
2024/04/18 06:13:47;;;;;;;;;;;;;;;;;;5414318;26;20015;-80
2024/04/18 06:16:13;;;;;;;;;;;;;;;;;;5414705;26;20057;-82
2024/04/18 06:18:42;;;;;;;;;;;;;;;;;;5429823;26;20344;-83
2024/04/18 06:21:10;;;;;;;;;;;;;;;;;;5407549;26;20047;-81
2024/04/18 06:23:39;;;;;;;;;;;;;;;;;;5421660;26;20003;-83
2024/04/18 06:26:07;;;;;;;;;;;;;;;;;;5418374;26;20080;-82
2024/04/18 06:28:37;;;;;;;;;;;;;;;;;;5412013;26;20007;-80
2024/04/18 06:31:06;;;;;;;;;;;;;;;;;;5402392;26;20467;-79
2024/04/18 06:33:35;;;;;;;;;;;;;;;;;;5411572;26;20068;-78
2024/04/18 06:36:03;;;;;;;;;;;;;;;;;;5407012;26;20026;-79
2024/04/18 06:38:32;;;;;;;;;;;;;;;;;;5408471;26;20021;-79
2024/04/18 06:41:00;;;;;;;;;;;;;;;;;;5405789;26;19996;-78
2024/04/18 06:43:29;;;;;;;;;;;;;;;;;;5410020;26;20057;-82
2024/04/18 06:45:58;;;;;;;;;;;;;;;;;;5409149;26;20026;-81
2024/04/18 06:48:26;;;;;;;;;;;;;;;;;;5412686;26;20003;-80
2024/04/18 06:50:55;;;;;;;;;;;;;;;;;;5407311;26;20007;-81
2024/04/18 06:53:23;;;;;;;;;;;;;;;;;;5412686;26;20030;-81
2024/04/18 06:55:52;;;;;;;;;;;;;;;;;;5418518;26;20018;-81
2024/04/18 06:58:20;;;;;;;;;;;;;;;;;;5415964;26;20069;-81
2024/04/18 07:00:49;;;;;;;;;;;;;;;;;;5409773;26;20516;-81
2024/04/18 07:03:18;;;;;;;;;;;;;;;;;;5417572;26;20021;-80
2024/04/18 07:05:46;;;;;;;;;;;;;;;;;;5418336;26;20064;-79
2024/04/18 07:08:15;;;;;;;;;;;;;;;;;;5417875;26;20402;-80
2024/04/18 07:10:44;;;;;;;;;;;;;;;;;;5414535;26;20014;-80
2024/04/18 07:13:12;;;;;;;;;;;;;;;;;;5413546;26;20012;-80
2024/04/18 07:15:41;;;;;;;;;;;;;;;;;;5418502;26;20006;-80
2024/04/18 07:18:09;;;;;;;;;;;;;;;;;;5406377;26;20003;-80
2024/04/18 07:20:36;;;;;;;;;;;;;;;;;;5411393;26;20338;-80
2024/04/18 07:23:04;;;;;;;;;;;;;;;;;;5434362;26;20054;-79
2024/04/18 07:25:33;;;;;;;;;;;;;;;;;;5420934;26;20021;-79
2024/04/18 07:28:01;;;;;;;;;;;;;;;;;;5408198;26;20003;-78
2024/04/18 07:30:30;;;;;;;;;;;;;;;;;;5410610;26;20406;-78
2024/04/18 07:32:58;;;;;;;;;;;;;;;;;;5416026;26;19999;-78
2024/04/18 07:35:27;;;;;;;;;;;;;;;;;;5418303;26;19999;-79
2024/04/18 07:37:56;;;;;;;;;;;;;;;;;;5428430;26;20003;-80
2024/04/18 07:40:25;;;;;;;;;;;;;;;;;;5411189;26;19995;-80
2024/04/18 07:42:53;;;;;;;;;;;;;;;;;;5418119;26;20029;-81
2024/04/18 07:45:22;;;;;;;;;;;;;;;;;;5403915;26;20329;-81
2024/04/18 07:47:51;;;;;;;;;;;;;;;;;;5396948;26;19999;-80
2024/04/18 07:50:19;;;;;;;;;;;;;;;;;;5409705;26;20010;-83
2024/04/18 07:52:48;;;;;;;;;;;;;;;;;;5413802;26;20460;-82
2024/04/18 07:55:17;;;;;;;;;;;;;;;;;;5416625;26;20003;-83
2024/04/18 07:57:45;;;;;;;;;;;;;;;;;;5418919;26;20007;-85
2024/04/18 08:00:14;;;;;;;;;;;;;;;;;;5417848;26;20025;-81
2024/04/18 08:02:43;;;;;;;;;;;;;;;;;;5430124;26;20006;-79
2024/04/18 08:05:09;;;;;;;;;;;;;;;;;;5408725;26;20538;-79
2024/04/18 08:07:38;;;;;;;;;;;;;;;;;;5418757;26;20022;-78
2024/04/18 08:10:06;;;;;;;;;;;;;;;;;;5403638;26;20383;-78
2024/04/18 08:12:35;;;;;;;;;;;;;;;;;;5417031;26;20072;-79
2024/04/18 08:15:04;;;;;;;;;;;;;;;;;;5414230;26;20084;-79
2024/04/18 08:17:33;;;;;;;;;;;;;;;;;;5411693;26;20022;-81
2024/04/18 08:20:01;;;;;;;;;;;;;;;;;;5415845;26;20022;-79
2024/04/18 08:22:30;;;;;;;;;;;;;;;;;;5412499;26;20026;-79
2024/04/18 08:24:58;;;;;;;;;;;;;;;;;;5415637;26;20086;-79
2024/04/18 08:27:27;;;;;;;;;;;;;;;;;;5437662;26;19998;-80
2024/04/18 08:29:56;;;;;;;;;;;;;;;;;;5425124;26;20011;-79
2024/04/18 08:32:24;;;;;;;;;;;;;;;;;;5412039;26;20010;-79
2024/04/18 08:34:53;;;;;;;;;;;;;;;;;;5423712;26;20011;-82
2024/04/18 08:37:21;;;;;;;;;;;;;;;;;;5440220;26;20006;-82
2024/04/18 08:39:50;;;;;;;;;;;;;;;;;;5404146;26;20003;-81
2024/04/18 08:42:18;;;;;;;;;;;;;;;;;;5414064;26;20006;-81
2024/04/18 08:44:44;;;;;;;;;;;;;;;;;;5441375;26;20011;-80
2024/04/18 08:47:13;;;;;;;;;;;;;;;;;;5424218;26;20339;-80
2024/04/18 08:49:42;;;;;;;;;;;;;;;;;;5409934;26;20062;-80
2024/04/18 08:52:10;;;;;;;;;;;;;;;;;;5429992;26;20006;-79
2024/04/18 08:54:39;;;;;;;;;;;;;;;;;;5447815;26;19999;-80
2024/04/18 08:57:07;;;;;;;;;;;;;;;;;;5432273;26;20046;-81
2024/04/18 08:59:36;;;;;;;;;;;;;;;;;;5409185;26;20095;-80
2024/04/18 09:02:04;;;;;;;;;;;;;;;;;;5434831;26;20091;-81
2024/04/18 09:04:34;;;;;;;;;;;;;;;;;;5424405;26;19998;-81
2024/04/18 09:07:03;;;;;;;;;;;;;;;;;;5457768;26;20462;-81
2024/04/18 09:09:32;;;;;;;;;;;;;;;;;;5424538;26;19999;-81
2024/04/18 09:12:02;;;;;;;;;;;;;;;;;;5415992;26;20003;-81
2024/04/18 09:14:31;;;;;;;;;;;;;;;;;;5420578;26;20029;-82
2024/04/18 09:16:59;;;;;;;;;;;;;;;;;;5390336;26;19991;-84
2024/04/18 09:19:28;;;;;;;;;;;;;;;;;;5461422;26;20002;-81
2024/04/18 09:21:56;;;;;;;;;;;;;;;;;;5423476;26;19999;-81
2024/04/18 09:24:25;;;;;;;;;;;;;;;;;;5443045;26;20014;-81
2024/04/18 09:26:53;;;;;;;;;;;;;;;;;;5452260;26;20354;-82
2024/04/18 09:29:22;;;;;;;;;;;;;;;;;;5425138;26;20007;-81
2024/04/18 09:31:51;;;;;;;;;;;;;;;;;;5420322;26;20023;-82
2024/04/18 09:34:19;;;;;;;;;;;;;;;;;;5442837;26;20003;-83
2024/04/18 09:36:48;;;;;;;;;;;;;;;;;;5406955;26;20003;-81
2024/04/18 09:39:16;;;;;;;;;;;;;;;;;;5446268;26;20472;-81
2024/04/18 09:41:45;;;;;;;;;;;;;;;;;;5433839;26;20014;-82
2024/04/18 09:44:15;;;;;;;;;;;;;;;;;;5427697;26;20015;-81
2024/04/18 09:46:43;;;;;;;;;;;;;;;;;;5413834;26;20002;-83
2024/04/18 09:49:12;;;;;;;;;;;;;;;;;;5439902;26;20022;-82
2024/04/18 09:51:40;;;;;;;;;;;;;;;;;;5435921;26;20003;-81
2024/04/18 09:54:09;;;;;;;;;;;;;;;;;;5442962;26;20471;-82
2024/04/18 09:56:37;;;;;;;;;;;;;;;;;;5436799;26;20002;-82
2024/04/18 09:59:06;;;;;;;;;;;;;;;;;;5445857;26;19998;-83
2024/04/18 10:01:35;;;;;;;;;;;;;;;;;;5454059;26;20025;-81
2024/04/18 10:04:03;;;;;;;;;;;;;;;;;;5426533;26;20022;-81
2024/04/18 10:06:33;;;;;;;;;;;;;;;;;;5414307;26;20013;-82
2024/04/18 10:09:01;;;;;;;;;;;;;;;;;;5412826;26;20003;-81
2024/04/18 10:11:30;;;;;;;;;;;;;;;;;;5438420;26;20103;-82
2024/04/18 10:13:58;;;;;;;;;;;;;;;;;;5447653;26;20475;-81
2024/04/18 10:16:27;;;;;;;;;;;;;;;;;;5452586;26;19990;-82
2024/04/18 10:18:56;;;;;;;;;;;;;;;;;;5455519;26;20011;-82
2024/04/18 10:21:25;;;;;;;;;;;;;;;;;;5426175;26;20121;-82
2024/04/18 10:23:53;;;;;;;;;;;;;;;;;;5431785;26;20007;-82
2024/04/18 10:26:22;;;;;;;;;;;;;;;;;;5436950;26;20079;-82
2024/04/18 10:28:51;;;;;;;;;;;;;;;;;;5443299;26;20002;-82
2024/04/18 10:31:19;;;;;;;;;;;;;;;;;;5431437;26;20013;-84
2024/04/18 10:33:49;;;;;;;;;;;;;;;;;;5448115;26;20017;-81
2024/04/18 10:36:17;;;;;;;;;;;;;;;;;;5440932;26;20003;-83
2024/04/18 10:38:46;;;;;;;;;;;;;;;;;;5438750;26;20463;-82
2024/04/18 10:41:12;;;;;;;;;;;;;;;;;;5434732;26;20015;-83
2024/04/18 10:43:41;;;;;;;;;;;;;;;;;;5456768;26;20083;-82
2024/04/18 10:46:07;;;;;;;;;;;;;;;;;;5441323;26;20014;-84
2024/04/18 10:48:35;;;;;;;;;;;;;;;;;;5451635;26;20061;-83
2024/04/18 10:51:04;;;;;;;;;;;;;;;;;;5427716;26;20008;-83
2024/04/18 10:53:33;;;;;;;;;;;;;;;;;;5389942;26;20035;-79
2024/04/18 10:56:01;;;;;;;;;;;;;;;;;;5401494;26;20068;-82
2024/04/18 10:58:27;;;;;;;;;;;;;;;;;;5442463;26;19995;-83
2024/04/18 11:00:56;;;;;;;;;;;;;;;;;;5434460;26;20057;-82
2024/04/18 11:03:25;;;;;;;;;;;;;;;;;;5421300;26;20003;-81
2024/04/18 11:05:53;;;;;;;;;;;;;;;;;;5431878;26;19998;-82
2024/04/18 11:08:22;;;;;;;;;;;;;;;;;;5441070;26;20029;-83
2024/04/18 11:10:50;;;;;;;;;;;;;;;;;;5436721;26;20018;-80
2024/04/18 11:13:19;;;;;;;;;;;;;;;;;;5422457;26;20343;-81
2024/04/18 11:15:47;;;;;;;;;;;;;;;;;;5436341;26;20003;-79
2024/04/18 11:18:16;;;;;;;;;;;;;;;;;;5450336;26;19995;-82
2024/04/18 11:20:49;;;;;;;;;;;;;;;;;;5451424;26;20084;-83
2024/04/18 11:23:17;;;;;;;;;;;;;;;;;;5454604;26;19998;-80
2024/04/18 11:25:46;;;;;;;;;;;;;;;;;;5443198;26;20011;-83
2024/04/18 11:28:15;;;;;;;;;;;;;;;;;;5408653;26;19999;-84
2024/04/18 11:30:43;;;;;;;;;;;;;;;;;;5429844;26;20021;-81
2024/04/18 11:33:10;;;;;;;;;;;;;;;;;;5428249;26;20124;-80
2024/04/18 11:35:40;;;;;;;;;;;;;;;;;;5449041;26;20003;-79
2024/04/18 11:38:09;;;;;;;;;;;;;;;;;;5447393;26;20040;-81
2024/04/18 11:40:38;;;;;;;;;;;;;;;;;;5441323;26;20013;-80
2024/04/18 11:43:07;;;;;;;;;;;;;;;;;;5427811;26;19999;-81
2024/04/18 11:45:35;;;;;;;;;;;;;;;;;;5416994;26;20044;-81
2024/04/18 11:48:04;;;;;;;;;;;;;;;;;;5433396;26;20059;-80
2024/04/18 11:50:32;;;;;;;;;;;;;;;;;;5460231;26;20100;-83
2024/04/18 11:53:01;;;;;;;;;;;;;;;;;;5445561;26;20474;-83
2024/04/18 11:55:30;;;;;;;;;;;;;;;;;;5422236;26;20459;-81
2024/04/18 11:57:59;;;;;;;;;;;;;;;;;;5447323;26;19995;-81
2024/04/18 12:00:27;;;;;;;;;;;;;;;;;;5422394;26;19999;-80
2024/04/18 12:02:56;;;;;;;;;;;;;;;;;;5439346;26;20015;-81
2024/04/18 12:05:24;;;;;;;;;;;;;;;;;;5425079;26;20030;-81
2024/04/18 12:07:53;;;;;;;;;;;;;;;;;;5416631;26;20359;-81
2024/04/18 12:10:22;;;;;;;;;;;;;;;;;;5426650;26;20064;-82
2024/04/18 12:12:50;;;;;;;;;;;;;;;;;;5408265;26;20022;-81
2024/04/18 12:15:19;;;;;;;;;;;;;;;;;;5419788;26;20100;-81
2024/04/18 12:17:47;;;;;;;;;;;;;;;;;;5416022;26;20429;-81
2024/04/18 12:20:16;;;;;;;;;;;;;;;;;;5390662;26;20015;-81
2024/04/18 12:22:45;;;;;;;;;;;;;;;;;;5430456;26;20025;-81
2024/04/18 12:25:14;;;;;;;;;;;;;;;;;;5442761;26;20007;-80
2024/04/18 12:27:42;;;;;;;;;;;;;;;;;;5413927;26;20087;-81
2024/04/18 12:30:13;;;;;;;;;;;;;;;;;;5415974;26;20016;-81
2024/04/18 12:32:39;;;;;;;;;;;;;;;;;;5414274;26;19996;-81
2024/04/18 12:35:10;;;;;;;;;;;;;;;;;;5422068;26;19995;-82
2024/04/18 12:37:38;;;;;;;;;;;;;;;;;;5410271;26;20007;-82
2024/04/18 12:40:07;;;;;;;;;;;;;;;;;;5406584;26;20065;-81
2024/04/18 12:42:36;;;;;;;;;;;;;;;;;;5419624;26;20021;-81
2024/04/18 12:45:04;;;;;;;;;;;;;;;;;;5415985;26;19999;-81
2024/04/18 12:47:35;;;;;;;;;;;;;;;;;;5403841;26;20022;-82
2024/04/18 12:50:01;;;;;;;;;;;;;;;;;;5428962;26;20022;-81
2024/04/18 12:52:30;;;;;;;;;;;;;;;;;;5413989;26;20031;-81
2024/04/18 12:54:58;;;;;;;;;;;;;;;;;;5418836;26;20003;-82
2024/04/18 12:57:24;;;;;;;;;;;;;;;;;;5409197;26;20084;-81
2024/04/18 12:59:53;;;;;;;;;;;;;;;;;;5423551;26;20402;-82
2024/04/18 13:02:21;;;;;;;;;;;;;;;;;;5410007;26;20011;-82
2024/04/18 13:04:50;;;;;;;;;;;;;;;;;;5422564;26;20413;-80
2024/04/18 13:07:20;;;;;;;;;;;;;;;;;;5411844;26;20447;-82
2024/04/18 13:09:49;;;;;;;;;;;;;;;;;;5426392;26;20011;-82
2024/04/18 13:12:17;;;;;;;;;;;;;;;;;;5431847;26;20002;-80
2024/04/18 13:14:43;;;;;;;;;;;;;;;;;;5429289;26;20006;-80
2024/04/18 13:17:12;;;;;;;;;;;;;;;;;;5415205;26;20018;-80
2024/04/18 13:19:40;;;;;;;;;;;;;;;;;;5412829;26;20538;-80
2024/04/18 13:22:09;;;;;;;;;;;;;;;;;;5456352;26;20002;-81
2024/04/18 13:24:35;;;;;;;;;;;;;;;;;;5405266;26;20011;-79
2024/04/18 13:27:04;;;;;;;;;;;;;;;;;;5400562;26;20358;-82
2024/04/18 13:29:33;;;;;;;;;;;;;;;;;;5423130;26;19999;-80
2024/04/18 13:32:02;;;;;;;;;;;;;;;;;;5414105;26;20048;-81
2024/04/18 13:34:31;;;;;;;;;;;;;;;;;;5415059;26;20030;-81
2024/04/18 13:37:00;;;;;;;;;;;;;;;;;;5394704;26;20003;-81
2024/04/18 13:39:28;;;;;;;;;;;;;;;;;;5401975;26;19995;-79
2024/04/18 13:41:54;;;;;;;;;;;;;;;;;;5426042;26;20003;-82
2024/04/18 13:44:23;;;;;;;;;;;;;;;;;;5451678;26;20021;-80
2024/04/18 13:46:52;;;;;;;;;;;;;;;;;;5431752;26;19999;-79
2024/04/18 13:49:21;;;;;;;;;;;;;;;;;;5423498;26;20025;-81
2024/04/18 13:51:49;;;;;;;;;;;;;;;;;;5435448;26;19998;-81
2024/04/18 13:54:18;;;;;;;;;;;;;;;;;;5461554;26;19999;-81
2024/04/18 13:56:46;;;;;;;;;;;;;;;;;;5461018;26;19990;-80
2024/04/18 13:59:15;;;;;;;;;;;;;;;;;;5431567;26;20026;-81
2024/04/18 14:01:44;;;;;;;;;;;;;;;;;;5439224;26;20003;-81
2024/04/18 14:04:12;;;;;;;;;;;;;;;;;;5394362;26;20026;-79
2024/04/18 14:06:41;;;;;;;;;;;;;;;;;;5410259;26;19999;-80
2024/04/18 14:09:09;;;;;;;;;;;;;;;;;;5437159;26;19986;-81
2024/04/18 14:11:38;;;;;;;;;;;;;;;;;;5421073;26;20022;-80
2024/04/18 14:14:07;;;;;;;;;;;;;;;;;;5449543;26;20010;-81
2024/04/18 14:19:21;;;;;;;;;;;;;;;;;;5444112;26;19997;-80
2024/04/18 14:21:49;;;;;;;;;;;;;;;;;;5430194;26;20096;-80
2024/04/18 14:24:19;;;;;;;;;;;;;;;;;;5441752;26;20518;-79
2024/04/18 14:26:47;;;;;;;;;;;;;;;;;;5436991;26;20351;-80
2024/04/18 14:29:16;;;;;;;;;;;;;;;;;;5422225;26;20065;-79
2024/04/18 14:31:44;;;;;;;;;;;;;;;;;;5422682;26;19991;-80
2024/04/18 14:34:13;;;;;;;;;;;;;;;;;;5435599;26;20029;-80
2024/04/18 14:36:42;;;;;;;;;;;;;;;;;;5450667;26;20478;-78
2024/04/18 14:39:10;;;;;;;;;;;;;;;;;;5405578;26;19999;-80
2024/04/18 14:41:39;;;;;;;;;;;;;;;;;;5427346;26;19999;-80
2024/04/18 14:44:07;;;;;;;;;;;;;;;;;;5430743;26;20018;-81
2024/04/18 14:46:36;;;;;;;;;;;;;;;;;;5426791;26;20497;-82
2024/04/18 14:49:05;;;;;;;;;;;;;;;;;;5441171;26;19995;-79
2024/04/18 14:51:33;;;;;;;;;;;;;;;;;;5417940;26;20003;-79
2024/04/18 14:54:02;;;;;;;;;;;;;;;;;;5394876;26;19995;-79
2024/04/18 14:56:30;;;;;;;;;;;;;;;;;;5418691;26;19991;-79
2024/04/18 14:58:59;;;;;;;;;;;;;;;;;;5441309;26;19994;-79
2024/04/18 15:01:27;;;;;;;;;;;;;;;;;;5444991;26;20019;-79
2024/04/18 15:03:56;;;;;;;;;;;;;;;;;;5434920;26;20015;-78
2024/04/18 15:06:25;;;;;;;;;;;;;;;;;;5419065;26;19995;-79
2024/04/18 15:08:54;;;;;;;;;;;;;;;;;;5422076;26;20026;-79
2024/04/18 15:11:23;;;;;;;;;;;;;;;;;;5411836;26;19999;-79
2024/04/18 15:13:51;;;;;;;;;;;;;;;;;;5409751;26;20022;-79
2024/04/18 15:16:20;;;;;;;;;;;;;;;;;;5416795;26;20003;-79
2024/04/18 15:18:48;;;;;;;;;;;;;;;;;;5428832;26;20003;-78
2024/04/18 15:21:18;;;;;;;;;;;;;;;;;;5417998;26;20393;-78
2024/04/18 15:23:46;;;;;;;;;;;;;;;;;;5414939;26;20104;-80
2024/04/18 15:26:16;;;;;;;;;;;;;;;;;;5421645;26;19999;-79
2024/04/18 15:28:46;;;;;;;;;;;;;;;;;;5415638;26;21532;-80
2024/04/18 15:31:15;;;;;;;;;;;;;;;;;;5417338;26;19995;-80
2024/04/18 15:33:43;;;;;;;;;;;;;;;;;;5424895;26;20011;-80
2024/04/18 15:36:12;;;;;;;;;;;;;;;;;;5418646;26;20451;-79
2024/04/18 15:38:40;;;;;;;;;;;;;;;;;;5403701;26;20648;-81
2024/04/18 15:41:09;;;;;;;;;;;;;;;;;;5419368;26;20014;-80
2024/04/18 15:43:35;;;;;;;;;;;;;;;;;;5421362;26;20010;-80
2024/04/18 15:46:04;;;;;;;;;;;;;;;;;;5398893;26;20557;-81
2024/04/18 15:48:32;;;;;;;;;;;;;;;;;;5411525;26;20062;-82
2024/04/18 15:51:01;;;;;;;;;;;;;;;;;;5461187;26;19998;-81
2024/04/18 15:53:27;;;;;;;;;;;;;;;;;;5447188;26;19999;-81
2024/04/18 15:55:55;;;;;;;;;;;;;;;;;;5449747;26;20025;-81
2024/04/18 15:58:24;;;;;;;;;;;;;;;;;;5458148;26;19999;-79
2024/04/18 16:00:53;;;;;;;;;;;;;;;;;;5425185;26;20088;-81
2024/04/18 16:03:21;;;;;;;;;;;;;;;;;;5414025;26;20011;-80
2024/04/18 16:05:50;;;;;;;;;;;;;;;;;;5426844;26;20109;-81
2024/04/18 16:08:18;;;;;;;;;;;;;;;;;;5420601;26;20007;-80
2024/04/18 16:10:47;;;;;;;;;;;;;;;;;;5397159;26;20490;-81
2024/04/18 16:13:16;;;;;;;;;;;;;;;;;;5391513;26;20011;-81
2024/04/18 16:15:44;;;;;;;;;;;;;;;;;;5420737;26;19995;-82
2024/04/18 16:18:13;;;;;;;;;;;;;;;;;;5411742;26;20003;-81
2024/04/18 16:20:41;;;;;;;;;;;;;;;;;;5404274;26;19995;-81
2024/04/18 16:23:10;;;;;;;;;;;;;;;;;;5418946;26;20023;-82
2024/04/18 16:25:40;;;;;;;;;;;;;;;;;;5412888;26;20007;-81
2024/04/18 16:28:09;;;;;;;;;;;;;;;;;;5401658;26;19999;-81
2024/04/18 16:30:38;;;;;;;;;;;;;;;;;;5422288;26;20024;-81
2024/04/18 16:33:07;;;;;;;;;;;;;;;;;;5412905;26;20023;-82
2024/04/18 16:35:35;;;;;;;;;;;;;;;;;;5420057;26;20022;-81
2024/04/18 16:38:04;;;;;;;;;;;;;;;;;;5416149;26;20014;-80
2024/04/18 16:40:32;;;;;;;;;;;;;;;;;;5417439;26;20003;-80
2024/04/18 16:43:02;;;;;;;;;;;;;;;;;;5431736;26;19999;-81
2024/04/18 16:45:30;;;;;;;;;;;;;;;;;;5434605;26;20025;-80
2024/04/18 16:47:59;;;;;;;;;;;;;;;;;;5433820;26;19987;-81
2024/04/18 16:50:28;;;;;;;;;;;;;;;;;;5419545;26;19995;-80
2024/04/18 16:52:56;;;;;;;;;;;;;;;;;;5426951;26;19995;-81
2024/04/18 16:55:27;;;;;;;;;;;;;;;;;;5409751;26;20006;-81
2024/04/18 16:57:55;;;;;;;;;;;;;;;;;;5423970;26;20022;-81